createdAt,value
2023-04-15T00:05:02.997Z,93221.91
2023-04-15T00:10:06.571Z,93218.66
2023-04-15T00:15:10.413Z,93214.47
2023-04-15T00:20:13.598Z,93222.81
2023-04-15T00:25:16.972Z,93212.81
2023-04-15T00:30:20.055Z,93211.97
2023-04-15T00:35:24.467Z,93210.84
2023-04-15T00:40:28.123Z,93201.03
2023-04-15T00:45:31.155Z,93224.56
2023-04-15T00:50:34.636Z,93226.34
2023-04-15T00:55:38.319Z,93213.41
2023-04-15T01:00:42.827Z,93214.09
2023-04-15T01:05:47.060Z,93193.84
2023-04-15T01:10:50.224Z,93192.47
2023-04-15T01:15:54.124Z,93209.16
2023-04-15T01:20:57.587Z,93204.16
2023-04-15T01:26:00.679Z,93203.63
2023-04-15T01:31:11.068Z,93199.63
2023-04-15T01:36:18.359Z,93188.72
2023-04-15T01:41:28.956Z,93195.16
2023-04-15T01:46:32.564Z,93200.50
2023-04-15T01:51:36.503Z,93203.72
2023-04-15T01:56:40.054Z,93209.75
2023-04-15T02:01:43.086Z,93203.41
2023-04-15T02:06:46.625Z,93196.69
2023-04-15T02:11:53.267Z,93190.69
2023-04-15T02:16:56.759Z,93197.41
2023-04-15T02:22:00.533Z,93192.63
2023-04-15T02:27:03.982Z,93184.94
2023-04-15T02:32:07.543Z,93183.00
2023-04-15T02:37:15.314Z,93190.00
2023-04-15T02:42:18.443Z,93190.41
2023-04-15T02:47:21.644Z,93203.69
2023-04-15T02:52:25.573Z,93205.41
2023-04-15T02:57:29.802Z,93202.28
2023-04-15T03:02:38.320Z,93205.91
2023-04-15T03:07:41.579Z,93208.44
2023-04-15T03:12:44.688Z,93202.91
2023-04-15T03:17:52.468Z,93202.59
2023-04-15T03:22:55.834Z,93215.13
2023-04-15T03:28:01.718Z,93209.72
2023-04-15T03:33:05.042Z,93214.44
2023-04-15T03:38:08.612Z,93206.63
2023-04-15T03:43:12.517Z,93222.56
2023-04-15T03:48:18.122Z,93219.25
2023-04-15T03:53:22.384Z,93208.81
2023-04-15T03:58:26.120Z,93201.34
2023-04-15T04:03:29.837Z,93198.22
2023-04-15T04:08:33.495Z,93198.44
2023-04-15T04:13:37.068Z,93192.19
2023-04-15T04:18:40.557Z,93199.44
2023-04-15T04:23:44.190Z,93197.53
2023-04-15T04:28:47.860Z,93217.94
2023-04-15T04:33:51.593Z,93214.09
2023-04-15T04:38:55.363Z,93201.97
2023-04-15T04:43:58.689Z,93211.72
2023-04-15T04:49:02.553Z,93198.31
2023-04-15T04:54:06.255Z,93213.47
2023-04-15T04:59:10.403Z,93219.00
2023-04-15T05:04:13.985Z,93225.84
2023-04-15T05:09:17.916Z,93222.56
2023-04-15T05:14:23.879Z,93216.50
2023-04-15T05:19:27.427Z,93220.94
2023-04-15T05:24:31.172Z,93234.38
2023-04-15T05:29:35.933Z,93221.72
2023-04-15T05:34:39.938Z,93218.75
2023-04-15T05:39:43.461Z,93218.84
2023-04-15T05:44:47.361Z,93204.50
2023-04-15T05:49:51.215Z,93207.72
2023-04-15T05:54:54.961Z,93204.31
2023-04-15T05:59:58.295Z,93213.75
2023-04-15T06:05:01.673Z,93202.03
2023-04-15T06:10:06.173Z,93209.44
2023-04-15T06:15:10.814Z,93213.66
2023-04-15T06:20:14.534Z,93214.31
2023-04-15T06:25:18.448Z,93217.03
2023-04-15T06:30:23.971Z,93204.34
2023-04-15T06:35:28.105Z,93180.72
2023-04-15T06:40:32.199Z,93193.75
2023-04-15T06:45:36.073Z,93180.84
2023-04-15T06:50:40.017Z,93192.28
2023-04-15T06:55:43.593Z,93178.72
2023-04-15T07:00:48.230Z,93176.94
2023-04-15T07:05:51.840Z,93191.03
2023-04-15T07:10:55.450Z,93184.84
2023-04-15T07:15:59.350Z,93194.09
2023-04-15T07:21:03.036Z,93194.41
2023-04-15T07:26:06.938Z,93205.56
2023-04-15T07:31:10.142Z,93209.31
2023-04-15T07:36:14.379Z,93211.75
2023-04-15T07:41:18.206Z,93213.28
2023-04-15T07:46:21.912Z,93206.81
2023-04-15T07:51:25.971Z,93201.34
2023-04-15T07:56:29.589Z,93194.91
2023-04-15T08:01:33.954Z,93196.16
2023-04-15T08:06:40.207Z,93185.81
2023-04-15T08:11:43.892Z,93199.34
2023-04-15T08:16:47.952Z,93218.19
2023-04-15T08:21:52.543Z,93212.06
2023-04-15T08:26:57.001Z,93231.38
2023-04-15T08:32:02.040Z,93230.78
2023-04-15T08:37:06.892Z,93237.00
2023-04-15T08:42:18.822Z,93236.41
2023-04-15T08:47:27.564Z,93246.75
2023-04-15T08:52:32.533Z,93236.34
2023-04-15T08:57:37.693Z,93244.88
2023-04-15T09:02:41.914Z,93249.56
2023-04-15T09:07:45.935Z,93239.47
2023-04-15T09:12:49.024Z,93233.47
2023-04-15T09:17:52.281Z,93233.25
2023-04-15T09:22:55.937Z,93239.00
2023-04-15T09:28:02.913Z,93235.16
2023-04-15T09:33:08.735Z,93232.22
2023-04-15T09:38:13.156Z,93235.75
2023-04-15T09:43:17.910Z,93224.69
2023-04-15T09:48:23.255Z,93209.41
2023-04-15T09:53:28.107Z,93211.97
2023-04-15T09:58:35.547Z,93220.66
2023-04-15T10:03:42.782Z,93219.94
2023-04-15T10:08:48.632Z,93222.38
2023-04-15T10:13:52.256Z,93243.91
2023-04-15T10:18:57.437Z,93213.75
2023-04-15T10:24:04.494Z,93218.84
2023-04-15T10:29:10.312Z,93206.06
2023-04-15T10:34:16.071Z,93187.00
2023-04-15T10:39:34.670Z,93197.25
2023-04-15T10:44:39.808Z,93169.06
2023-04-15T10:49:57.571Z,93161.19
2023-04-15T10:55:26.337Z,93155.28
2023-04-15T11:00:32.951Z,93159.91
2023-04-15T11:05:42.375Z,93156.47
2023-04-15T11:10:45.968Z,93157.78
2023-04-15T11:15:50.719Z,93168.88
2023-04-15T11:21:00.709Z,93164.22
2023-04-15T11:26:09.899Z,93162.31
2023-04-15T11:31:18.709Z,93167.03
2023-04-15T11:36:22.447Z,93160.69
2023-04-15T11:41:26.616Z,93147.53
2023-04-15T11:46:34.341Z,93136.69
2023-04-15T11:51:38.178Z,93129.03
2023-04-15T11:56:41.769Z,93130.94
2023-04-15T12:01:47.909Z,93127.81
2023-04-15T12:06:51.660Z,93131.16
2023-04-15T12:11:58.821Z,93117.97
2023-04-15T12:17:05.829Z,93100.78
2023-04-15T12:22:15.509Z,93088.69
2023-04-15T12:27:19.230Z,93068.13
2023-04-15T12:32:24.008Z,93068.94
2023-04-15T12:37:28.207Z,93087.88
2023-04-15T12:42:32.693Z,93086.69
2023-04-15T12:47:37.230Z,93088.41
2023-04-15T12:52:41.321Z,93076.22
2023-04-15T12:57:45.678Z,93060.97
2023-04-15T13:02:49.658Z,93059.31
2023-04-15T13:07:53.501Z,93050.63
2023-04-15T13:12:57.526Z,93051.47
2023-04-15T13:18:02.100Z,93039.03
2023-04-15T13:23:05.294Z,93036.16
2023-04-15T13:28:09.448Z,93021.69
2023-04-15T13:33:13.044Z,93020.72
2023-04-15T13:38:16.310Z,93011.63
2023-04-15T13:43:19.996Z,93019.69
2023-04-15T13:48:24.273Z,93023.41
2023-04-15T13:53:38.187Z,93010.50
2023-04-15T13:58:43.173Z,92994.69
2023-04-15T14:03:47.009Z,92980.47
2023-04-15T14:08:50.181Z,92972.72
2023-04-15T14:13:53.806Z,92972.38
2023-04-15T14:18:58.474Z,92942.31
2023-04-15T14:24:01.891Z,92955.22
2023-04-15T14:29:06.091Z,92948.06
2023-04-15T14:34:09.816Z,92938.41
2023-04-15T14:39:14.975Z,92936.09
2023-04-15T14:44:18.737Z,92941.50
2023-04-15T14:49:23.183Z,92938.81
2023-04-15T14:54:27.278Z,92930.56
2023-04-15T14:59:31.071Z,92920.56
2023-04-15T15:04:36.551Z,92928.19
2023-04-15T15:09:39.994Z,92913.91
2023-04-15T15:14:44.231Z,92912.34
2023-04-15T15:19:47.372Z,92899.94
2023-04-15T15:24:51.454Z,92914.13
2023-04-15T15:29:54.630Z,92898.44
2023-04-15T15:34:58.835Z,92903.22
2023-04-15T15:40:05.134Z,92892.56
2023-04-15T15:45:09.016Z,92895.38
2023-04-15T15:50:14.884Z,92889.66
2023-04-15T15:55:19.202Z,92875.00
2023-04-15T16:00:23.802Z,92876.22
2023-04-15T16:05:27.736Z,92889.94
2023-04-15T16:10:31.795Z,92882.88
2023-04-15T16:15:36.110Z,92880.16
2023-04-15T16:20:39.917Z,92886.16
2023-04-15T16:25:44.763Z,92892.59
2023-04-15T16:30:48.063Z,92891.88
2023-04-15T16:35:52.754Z,92897.22
2023-04-15T16:41:00.758Z,92904.53
2023-04-15T16:46:04.105Z,92899.56
2023-04-15T16:51:07.810Z,92898.16
2023-04-15T16:56:11.291Z,92890.16
2023-04-15T17:01:15.714Z,92901.22
2023-04-15T17:06:18.995Z,92887.94
2023-04-15T17:11:22.560Z,92895.78
2023-04-15T17:16:27.186Z,92896.00
2023-04-15T17:21:32.054Z,92906.97
2023-04-15T17:26:35.876Z,92911.66
2023-04-15T17:31:39.890Z,92907.09
2023-04-15T17:36:44.478Z,92912.22
2023-04-15T17:41:48.753Z,92909.47
2023-04-15T17:46:52.927Z,92913.66
2023-04-15T17:51:56.624Z,92925.59
2023-04-15T17:57:00.641Z,92936.44
2023-04-15T18:02:04.558Z,92946.75
2023-04-15T18:07:08.516Z,92938.91
2023-04-15T18:12:12.354Z,92933.56
2023-04-15T18:17:16.794Z,92943.41
2023-04-15T18:22:21.386Z,92938.88
2023-04-15T18:27:25.108Z,92937.78
2023-04-15T18:32:31.924Z,92960.50
2023-04-15T18:37:35.842Z,92970.81
2023-04-15T18:42:39.427Z,92967.38
2023-04-15T18:47:43.035Z,92973.63
2023-04-15T18:52:46.563Z,92981.09
2023-04-15T18:57:50.430Z,92959.31
2023-04-15T19:02:55.105Z,92988.19
2023-04-15T19:07:59.700Z,92976.50
2023-04-15T19:13:04.610Z,92973.44
2023-04-15T19:18:11.132Z,92982.00
2023-04-15T19:23:15.915Z,92991.38
2023-04-15T19:28:19.935Z,92981.22
2023-04-15T19:33:23.427Z,92985.53
2023-04-15T19:38:26.795Z,92991.78
2023-04-15T19:43:33.318Z,92977.34
2023-04-15T19:48:37.625Z,92979.69
2023-04-15T19:53:41.951Z,92965.25
2023-04-15T19:58:47.316Z,92981.94
2023-04-15T20:03:54.076Z,92977.63
2023-04-15T20:08:59.504Z,92984.66
2023-04-15T20:14:03.441Z,92968.66
2023-04-15T20:19:13.423Z,92972.13
2023-04-15T20:24:17.299Z,92966.66
2023-04-15T20:29:21.575Z,92983.50
2023-04-15T20:34:25.568Z,92982.78
2023-04-15T20:39:30.716Z,92984.75
2023-04-15T20:44:35.751Z,92985.13
2023-04-15T20:49:40.382Z,92983.16
2023-04-15T20:54:45.001Z,92980.84
2023-04-15T20:59:48.901Z,92993.31
2023-04-15T21:04:52.389Z,92994.88
2023-04-15T21:09:56.317Z,92981.22
2023-04-15T21:15:00.530Z,92986.31
2023-04-15T21:20:05.094Z,92971.88
2023-04-15T21:25:09.948Z,92946.53
2023-04-15T21:30:14.160Z,92966.44
2023-04-15T21:35:18.530Z,92950.47
2023-04-15T21:40:22.218Z,92959.78
2023-04-15T21:45:26.317Z,92954.34
2023-04-15T21:50:30.539Z,92944.22
2023-04-15T21:55:34.016Z,92948.09
2023-04-15T22:00:39.713Z,92967.97
2023-04-15T22:05:46.830Z,92950.44
2023-04-15T22:10:50.883Z,92939.91
2023-04-15T22:15:54.665Z,92916.94
2023-04-15T22:20:57.857Z,92925.13
2023-04-15T22:26:01.269Z,92912.25
2023-04-15T22:31:04.463Z,92898.63
2023-04-15T22:36:08.024Z,92887.69
2023-04-15T22:41:11.660Z,92919.69
2023-04-15T22:46:15.376Z,92893.97
2023-04-15T22:51:23.894Z,92899.41
2023-04-15T22:56:27.478Z,92907.22
2023-04-15T23:01:32.495Z,92892.41
2023-04-15T23:06:36.114Z,92879.94
2023-04-15T23:11:39.243Z,92853.84
2023-04-15T23:16:43.567Z,92830.09
2023-04-15T23:21:47.856Z,92851.13
2023-04-15T23:26:53.392Z,92860.06
2023-04-15T23:31:57.957Z,92891.09
2023-04-15T23:37:01.582Z,92896.16
2023-04-15T23:42:05.759Z,92879.78
2023-04-15T23:47:09.558Z,92897.22
2023-04-15T23:52:12.637Z,92886.69
2023-04-15T23:57:16.753Z,92844.44
